Time;durP1;ratioP1;P1;durP2;ratioP2;P2;SDS_P1;SDS_P2;PMS_P1;PMS_P2;Temp;Humidity;BMP_temperature;BMP_pressure;BME280_temperature;BME280_humidity;BME280_pressure;Samples;Min_cycle;Max_cycle;Signal;HPM_P1;HPM_P2
2022/11/17 00:01:56;;;;;;;5.10;4.80;;;10.20;99.90;;;;;;5042314;28;20179;-69
2022/11/17 00:04:24;;;;;;;9.53;5.17;;;10.20;99.90;;;;;;5030944;28;20214;-68
2022/11/17 00:06:49;;;;;;;5.43;4.93;;;10.20;99.90;;;;;;5037163;28;20163;-69
2022/11/17 00:09:16;;;;;;;5.00;4.60;;;10.20;99.90;;;;;;5050626;28;20628;-68
2022/11/17 00:14:31;;;;;;;6.53;4.87;;;10.20;99.90;;;;;;5034812;28;20218;-69
2022/11/17 00:16:58;;;;;;;5.90;4.93;;;10.20;99.90;;;;;;5040284;28;20175;-69
2022/11/17 00:22:07;;;;;;;5.67;5.17;;;10.20;99.90;;;;;;5046066;28;20185;-69
2022/11/17 00:24:33;;;;;;;5.17;4.97;;;10.20;99.90;;;;;;5032958;28;20215;-69
2022/11/17 00:27:01;;;;;;;5.40;5.10;;;10.20;99.90;;;;;;5040042;28;20641;-70
2022/11/17 00:29:27;;;;;;;5.10;4.80;;;10.20;99.90;;;;;;5054124;28;20671;-68
2022/11/17 00:34:37;;;;;;;5.40;4.60;;;10.30;99.90;;;;;;5034140;28;20203;-68
2022/11/17 00:37:05;;;;;;;4.87;4.63;;;10.30;99.90;;;;;;5041480;28;20559;-69
2022/11/17 00:39:30;;;;;;;5.27;4.77;;;10.30;99.90;;;;;;5053955;28;20170;-67
2022/11/17 00:41:57;;;;;;;4.93;4.63;;;10.30;99.90;;;;;;5047724;28;20270;-67
2022/11/17 00:44:23;;;;;;;4.43;4.23;;;10.30;99.90;;;;;;5034215;28;20208;-67
2022/11/17 00:46:49;;;;;;;6.83;4.87;;;10.30;99.90;;;;;;5039177;28;20171;-67
2022/11/17 00:49:16;;;;;;;4.83;4.53;;;10.30;99.90;;;;;;5054224;28;20660;-67
2022/11/17 00:51:42;;;;;;;5.40;4.90;;;10.30;99.90;;;;;;5049902;28;20172;-67
2022/11/17 00:54:11;;;;;;;6.37;4.70;;;10.30;99.90;;;;;;5033268;28;20686;-68
2022/11/17 00:56:37;;;;;;;4.77;4.57;;;10.20;99.90;;;;;;5037158;28;20178;-68
2022/11/17 00:59:02;;;;;;;4.50;4.30;;;10.20;99.90;;;;;;5053752;28;20262;-68
2022/11/17 01:01:28;;;;;;;5.47;4.77;;;10.20;99.90;;;;;;5050571;28;20214;-68
2022/11/17 01:04:01;;;;;;;5.23;4.93;;;10.20;99.90;;;;;;5033821;28;20207;-69
2022/11/17 01:06:38;;;;;;;5.23;4.83;;;10.20;99.90;;;;;;5035261;28;20251;-68
2022/11/17 01:09:07;;;;;;;5.70;5.20;;;10.20;99.90;;;;;;5053443;28;20325;-69
2022/11/17 01:11:32;;;;;;;4.77;4.57;;;10.20;99.90;;;;;;5051342;28;20171;-69
2022/11/17 01:13:59;;;;;;;4.77;4.47;;;10.20;99.90;;;;;;5033528;28;20233;-69
2022/11/17 01:16:26;;;;;;;4.50;4.30;;;10.20;99.90;;;;;;5034833;28;20214;-69
2022/11/17 01:18:52;;;;;;;5.00;4.70;;;10.20;99.90;;;;;;5053291;28;20182;-69
2022/11/17 01:21:24;;;;;;;4.60;4.40;;;10.20;99.90;;;;;;5051170;28;20181;-69
2022/11/17 01:23:52;;;;;;;4.77;4.57;;;10.20;99.90;;;;;;5031869;28;20207;-69
2022/11/17 01:26:20;;;;;;;5.83;4.23;;;10.20;99.90;;;;;;5033352;28;20566;-69
2022/11/17 01:28:47;;;;;;;4.53;4.30;;;10.20;99.90;;;;;;5033246;28;20171;-69
2022/11/17 01:31:16;;;;;;;6.00;5.03;;;10.20;99.90;;;;;;5033074;28;20172;-69
2022/11/17 01:33:42;;;;;;;5.13;4.83;;;10.20;99.90;;;;;;5052054;28;20312;-69
2022/11/17 01:36:12;;;;;;;5.33;4.83;;;10.20;99.90;;;;;;5053026;28;20663;-69
2022/11/17 01:38:38;;;;;;;5.40;5.00;;;10.20;99.90;;;;;;5033836;28;20197;-69
2022/11/17 01:41:06;;;;;;;6.30;4.90;;;10.20;99.90;;;;;;5032771;28;20251;-69
2022/11/17 01:43:49;;;;;;;5.07;4.60;;;10.20;99.90;;;;;;5048934;28;20693;-69
2022/11/17 01:46:31;;;;;;;13.00;4.73;;;10.20;99.90;;;;;;5052921;28;20279;-69
2022/11/17 01:49:23;;;;;;;5.20;4.90;;;10.20;99.90;;;;;;5032802;28;20266;-69
2022/11/17 01:51:54;;;;;;;4.90;4.70;;;10.20;99.90;;;;;;5034618;28;20178;-69
2022/11/17 01:54:23;;;;;;;4.50;4.20;;;10.20;99.90;;;;;;5051333;28;20278;-71
2022/11/17 01:56:52;;;;;;;4.57;4.37;;;10.20;99.90;;;;;;5048679;28;20179;-69
2022/11/17 01:59:24;;;;;;;4.27;3.90;;;10.20;99.90;;;;;;5032680;28;20321;-69
2022/11/17 02:01:56;;;;;;;6.47;4.90;;;10.20;99.90;;;;;;5035531;28;20183;-69
2022/11/17 02:04:34;;;;;;;4.97;4.70;;;10.20;99.90;;;;;;5052339;28;20281;-69
2022/11/17 02:07:09;;;;;;;5.00;4.80;;;10.20;99.90;;;;;;5045867;28;20171;-69
2022/11/17 02:09:37;;;;;;;4.37;4.10;;;10.30;99.90;;;;;;5030924;28;20226;-69
2022/11/17 02:12:04;;;;;;;7.77;4.93;;;10.30;99.90;;;;;;5037096;28;20175;-69
2022/11/17 02:14:30;;;;;;;5.17;4.67;;;10.30;99.90;;;;;;5052188;28;20211;-69
2022/11/17 02:16:56;;;;;;;5.23;4.97;;;10.30;99.90;;;;;;5047830;28;20195;-69
2022/11/17 02:19:25;;;;;;;5.37;5.07;;;10.40;99.90;;;;;;5029752;28;20182;-70
2022/11/17 02:22:04;;;;;;;5.13;4.83;;;10.40;99.90;;;;;;5035280;28;20679;-69
2022/11/17 02:24:52;;;;;;;4.93;4.63;;;10.40;99.90;;;;;;5052006;28;20204;-69
2022/11/17 02:27:48;;;;;;;4.60;4.40;;;10.40;99.90;;;;;;5044801;28;20179;-69
2022/11/17 02:30:17;;;;;;;6.13;5.83;;;10.40;99.90;;;;;;5032076;28;20172;-69
2022/11/17 02:33:10;;;;;;;5.03;4.83;;;10.40;99.90;;;;;;5041496;28;20178;-69
2022/11/17 02:35:44;;;;;;;5.00;4.80;;;10.50;99.90;;;;;;5051518;28;20191;-69
2022/11/17 02:38:29;;;;;;;4.97;4.77;;;10.50;99.90;;;;;;5037993;28;20194;-69
2022/11/17 02:41:28;;;;;;;4.60;4.40;;;10.50;99.90;;;;;;5031644;28;20179;-68
2022/11/17 02:44:05;;;;;;;4.70;4.30;;;10.40;99.90;;;;;;5050783;28;20216;-68
2022/11/17 02:46:41;;;;;;;6.20;5.00;;;10.40;99.90;;;;;;5051499;28;20581;-68
2022/11/17 02:49:22;;;;;;;5.00;4.53;;;10.50;99.90;;;;;;5031611;28;20179;-68
2022/11/17 02:51:52;;;;;;;4.60;4.40;;;10.40;99.90;;;;;;5033240;28;20167;-68
2022/11/17 02:54:20;;;;;;;5.10;4.80;;;10.40;99.90;;;;;;5051724;28;20175;-68
2022/11/17 02:56:45;;;;;;;4.30;4.10;;;10.40;99.90;;;;;;5049580;28;20236;-69
2022/11/17 02:59:16;;;;;;;5.30;4.40;;;10.50;99.90;;;;;;5031461;28;20168;-69
2022/11/17 03:02:01;;;;;;;4.87;4.60;;;10.50;99.90;;;;;;5032369;28;20545;-68
2022/11/17 03:04:51;;;;;;;4.80;4.60;;;10.40;99.90;;;;;;5031766;28;20227;-68
2022/11/17 03:07:25;;;;;;;5.10;4.80;;;10.50;99.90;;;;;;5031688;28;20171;-68
2022/11/17 03:10:03;;;;;;;4.60;4.40;;;10.40;99.90;;;;;;5031391;28;20174;-68
2022/11/17 03:13:01;;;;;;;5.23;4.90;;;10.50;99.90;;;;;;5051468;28;20269;-69
2022/11/17 03:15:35;;;;;;;5.10;4.80;;;10.50;99.90;;;;;;5045956;28;20683;-68
2022/11/17 03:18:24;;;;;;;4.77;4.57;;;10.50;99.90;;;;;;5030234;28;20270;-68
2022/11/17 03:21:09;;;;;;;5.23;4.93;;;10.50;99.90;;;;;;5039184;28;20644;-68
2022/11/17 03:23:53;;;;;;;4.57;4.37;;;10.50;99.90;;;;;;5051345;28;20182;-68
2022/11/17 03:26:26;;;;;;;5.10;4.70;;;10.60;99.90;;;;;;5038505;28;20207;-68
2022/11/17 03:28:53;;;;;;;5.17;4.87;;;10.60;99.90;;;;;;5031355;28;20176;-68
2022/11/17 03:31:21;;;;;;;5.73;5.00;;;10.60;99.90;;;;;;5042652;28;20190;-69
2022/11/17 03:33:48;;;;;;;4.87;4.67;;;10.60;99.90;;;;;;5049916;28;20269;-68
2022/11/17 03:36:18;;;;;;;4.67;4.47;;;10.60;99.90;;;;;;5039117;28;20653;-69
2022/11/17 03:38:54;;;;;;;4.50;4.30;;;10.50;99.90;;;;;;5031202;28;20168;-69
2022/11/17 03:41:22;;;;;;;4.77;4.37;;;10.50;99.90;;;;;;5041580;28;20583;-69
2022/11/17 03:43:50;;;;;;;4.80;4.40;;;10.50;99.90;;;;;;5050986;28;20202;-68
2022/11/17 03:46:20;;;;;;;4.43;4.23;;;10.50;99.90;;;;;;5041927;28;20203;-68
2022/11/17 03:49:17;;;;;;;4.57;4.37;;;10.50;99.90;;;;;;5035125;28;20445;-68
2022/11/17 03:51:43;;;;;;;4.30;4.00;;;10.50;99.90;;;;;;5045937;28;20189;-68
2022/11/17 03:54:09;;;;;;;4.73;4.53;;;10.40;99.90;;;;;;5036146;28;20735;-69
2022/11/17 03:56:54;;;;;;;5.10;4.90;;;10.40;99.90;;;;;;5034974;28;20275;-69
2022/11/17 03:59:42;;;;;;;4.60;4.40;;;10.30;99.90;;;;;;5034823;28;20426;-68
2022/11/17 04:02:13;;;;;;;10.27;4.60;;;10.30;99.90;;;;;;5051842;28;20194;-68
2022/11/17 04:07:23;;;;;;;4.43;4.23;;;10.10;99.90;;;;;;5036096;28;20314;-69
2022/11/17 04:09:49;;;;;;;4.70;4.50;;;10.10;99.90;;;;;;5034408;28;20622;-68
2022/11/17 04:17:50;;;;;;;5.33;4.93;;;10.00;99.90;;;;;;5018428;28;20188;-68
2022/11/17 04:20:16;;;;;;;4.70;4.50;;;10.00;99.90;;;;;;5035387;28;20190;-68
2022/11/17 04:22:42;;;;;;;4.77;4.57;;;10.00;99.90;;;;;;5053965;28;20261;-68
2022/11/17 04:25:07;;;;;;;4.90;4.60;;;9.90;99.90;;;;;;5054252;28;20202;-68
2022/11/17 04:30:17;;;;;;;4.37;4.17;;;10.00;99.90;;;;;;5035095;28;20221;-68
2022/11/17 04:32:43;;;;;;;4.80;4.50;;;9.90;99.90;;;;;;5054229;28;20179;-68
2022/11/17 04:35:09;;;;;;;5.00;4.70;;;9.90;99.90;;;;;;5052927;28;20580;-68
2022/11/17 04:37:34;;;;;;;4.67;4.40;;;9.90;99.90;;;;;;5033423;28;20722;-68
2022/11/17 04:40:00;;;;;;;4.43;4.20;;;9.90;99.90;;;;;;5033928;28;20171;-68
2022/11/17 04:42:25;;;;;;;5.40;4.90;;;9.90;99.90;;;;;;5052572;28;20174;-67
2022/11/17 04:44:51;;;;;;;4.90;4.70;;;10.00;99.90;;;;;;5053837;28;20293;-67
2022/11/17 04:47:16;;;;;;;6.93;4.70;;;10.00;99.90;;;;;;5037141;28;20175;-67
2022/11/17 04:49:42;;;;;;;7.23;4.50;;;10.10;99.90;;;;;;5032429;28;20178;-67
2022/11/17 04:52:08;;;;;;;5.23;5.00;;;10.20;99.90;;;;;;5049668;28;20196;-67
2022/11/17 04:54:34;;;;;;;5.00;4.80;;;10.30;99.90;;;;;;5053752;28;20201;-67
2022/11/17 04:56:59;;;;;;;4.37;4.17;;;10.30;99.90;;;;;;5038540;28;20543;-67
2022/11/17 04:59:25;;;;;;;4.70;4.50;;;10.40;99.90;;;;;;5033577;28;20187;-67
2022/11/17 05:01:51;;;;;;;5.07;4.33;;;10.50;99.90;;;;;;5046662;28;20203;-67
2022/11/17 05:07:16;;;;;;;5.03;4.83;;;10.70;99.90;;;;;;5020802;28;20664;-67
2022/11/17 05:09:42;;;;;;;5.30;5.03;;;10.70;99.90;;;;;;5033316;28;20186;-68
2022/11/17 05:14:52;;;;;;;5.23;4.93;;;10.70;99.90;;;;;;5033502;28;20230;-67
2022/11/17 05:17:17;;;;;;;4.80;4.60;;;10.70;99.90;;;;;;5050949;28;20183;-68
2022/11/17 05:19:47;;;;;;;4.70;4.50;;;10.70;99.90;;;;;;5051861;28;20178;-68
2022/11/17 05:25:07;;;;;;;4.50;4.30;;;10.60;99.90;;;;;;5033369;28;20280;-68
2022/11/17 05:27:33;;;;;;;4.73;4.53;;;10.60;99.90;;;;;;5051790;28;20253;-68
2022/11/17 05:30:03;;;;;;;4.50;4.30;;;10.60;99.90;;;;;;5052824;28;20248;-69
2022/11/17 05:32:28;;;;;;;4.80;4.60;;;10.50;99.90;;;;;;5035740;28;20505;-68
2022/11/17 05:34:54;;;;;;;4.70;4.50;;;10.50;99.90;;;;;;5033130;28;20206;-68
2022/11/17 05:37:19;;;;;;;4.80;4.50;;;10.50;99.90;;;;;;5049230;28;20206;-68
2022/11/17 05:39:45;;;;;;;4.90;4.70;;;10.50;99.90;;;;;;5052709;28;20354;-69
2022/11/17 05:42:11;;;;;;;6.33;4.90;;;10.50;99.90;;;;;;5038500;28;20179;-67
2022/11/17 05:44:36;;;;;;;4.73;4.43;;;10.50;99.90;;;;;;5032797;28;20203;-68
2022/11/17 05:47:02;;;;;;;5.90;5.40;;;10.50;99.90;;;;;;5046367;28;20274;-68
2022/11/17 05:49:27;;;;;;;4.90;4.70;;;10.50;99.90;;;;;;5052635;28;20174;-68
2022/11/17 05:51:53;;;;;;;5.33;5.13;;;10.50;99.90;;;;;;5039388;28;20171;-68
2022/11/17 05:54:19;;;;;;;5.03;4.70;;;10.50;99.90;;;;;;5031968;28;20617;-69
2022/11/17 05:56:52;;;;;;;4.53;4.10;;;10.40;99.90;;;;;;5043350;28;20213;-69
2022/11/17 05:59:32;;;;;;;4.77;4.53;;;10.40;99.90;;;;;;5051189;28;20167;-69
2022/11/17 06:01:59;;;;;;;5.17;4.67;;;10.40;99.90;;;;;;5040081;28;20186;-69
2022/11/17 06:04:26;;;;;;;4.17;3.97;;;10.40;99.90;;;;;;5031378;28;20207;-68
2022/11/17 06:06:57;;;;;;;5.23;4.83;;;10.40;99.90;;;;;;5043833;28;20629;-68
2022/11/17 06:09:25;;;;;;;4.63;4.43;;;10.40;99.90;;;;;;5050811;28;20171;-68
2022/11/17 06:11:51;;;;;;;4.77;4.50;;;10.40;99.90;;;;;;5041021;28;20226;-68
2022/11/17 06:14:16;;;;;;;5.63;5.33;;;10.30;99.90;;;;;;5032335;28;20168;-69
2022/11/17 06:16:47;;;;;;;5.37;5.10;;;10.40;99.90;;;;;;5042449;28;20198;-69
2022/11/17 06:19:21;;;;;;;5.20;4.90;;;10.30;99.90;;;;;;5051027;28;20170;-68
2022/11/17 06:21:47;;;;;;;10.30;5.10;;;10.30;99.90;;;;;;5040533;28;20676;-69
2022/11/17 06:24:13;;;;;;;4.77;4.47;;;10.30;99.90;;;;;;5030831;28;20300;-68
2022/11/17 06:26:41;;;;;;;5.40;5.20;;;10.30;99.90;;;;;;5030857;28;20660;-69
2022/11/17 06:29:08;;;;;;;5.60;4.67;;;10.30;99.90;;;;;;5032027;28;20164;-69
2022/11/17 06:31:34;;;;;;;5.47;4.70;;;10.30;99.90;;;;;;5034050;28;20641;-68
2022/11/17 06:34:01;;;;;;;4.67;4.47;;;10.30;99.90;;;;;;5040051;28;20182;-68
2022/11/17 06:36:28;;;;;;;4.50;4.30;;;10.30;99.90;;;;;;5045435;28;20171;-68
2022/11/17 06:38:53;;;;;;;7.00;4.67;;;10.30;99.90;;;;;;5030613;28;20563;-68
2022/11/17 06:41:19;;;;;;;5.70;4.67;;;10.30;99.90;;;;;;5036220;28;20183;-68
2022/11/17 06:43:44;;;;;;;9.00;4.73;;;10.30;99.90;;;;;;5050473;28;20236;-69
2022/11/17 06:46:10;;;;;;;5.17;4.67;;;10.30;99.90;;;;;;5051122;28;20195;-69
2022/11/17 06:48:35;;;;;;;5.10;4.70;;;10.40;99.90;;;;;;5051792;28;20636;-68
2022/11/17 06:51:03;;;;;;;10.90;4.80;;;10.40;99.90;;;;;;5049642;28;20173;-69
2022/11/17 06:53:29;;;;;;;5.80;5.50;;;10.40;99.90;;;;;;5030614;28;20571;-69
2022/11/17 06:56:00;;;;;;;5.97;5.23;;;10.40;99.90;;;;;;5032198;28;20195;-69
2022/11/17 06:58:26;;;;;;;5.80;5.40;;;10.40;99.90;;;;;;5030877;28;20636;-68
2022/11/17 07:00:51;;;;;;;5.87;5.47;;;10.40;99.90;;;;;;5037032;28;20186;-68
2022/11/17 07:03:17;;;;;;;6.90;4.80;;;10.40;99.90;;;;;;5037820;28;20309;-70
2022/11/17 07:05:43;;;;;;;5.23;4.73;;;10.50;99.90;;;;;;5030705;28;20203;-68
2022/11/17 07:08:09;;;;;;;6.57;5.10;;;10.50;99.90;;;;;;5031499;28;20172;-68
2022/11/17 07:10:35;;;;;;;7.60;4.83;;;10.50;99.90;;;;;;5030163;28;20183;-68
2022/11/17 07:13:01;;;;;;;12.00;4.97;;;10.50;99.90;;;;;;5042976;28;20175;-68
2022/11/17 07:15:27;;;;;;;6.20;4.73;;;10.50;99.90;;;;;;5044911;28;20257;-69
2022/11/17 07:17:52;;;;;;;5.40;4.33;;;10.50;99.90;;;;;;5030608;28;20179;-68
2022/11/17 07:20:18;;;;;;;5.10;4.60;;;10.60;99.90;;;;;;5030821;28;20177;-70
2022/11/17 07:22:44;;;;;;;4.87;4.50;;;10.50;99.90;;;;;;5031263;28;20206;-69
2022/11/17 07:25:10;;;;;;;5.03;4.53;;;10.60;99.90;;;;;;5034574;28;20213;-70
2022/11/17 07:27:37;;;;;;;5.13;4.63;;;10.60;99.90;;;;;;5051100;28;20171;-69
2022/11/17 07:30:04;;;;;;;5.20;4.70;;;10.60;99.90;;;;;;5048380;28;20837;-69
2022/11/17 07:32:32;;;;;;;5.07;4.77;;;10.60;99.90;;;;;;5031430;28;20183;-69
2022/11/17 07:34:58;;;;;;;4.83;4.27;;;10.60;99.90;;;;;;5031669;28;20286;-68
2022/11/17 07:37:24;;;;;;;4.80;4.60;;;10.60;99.90;;;;;;5050856;28;20205;-69
2022/11/17 07:39:50;;;;;;;4.67;4.47;;;10.60;99.90;;;;;;5050197;28;20611;-68
2022/11/17 07:42:15;;;;;;;4.60;4.40;;;10.60;99.90;;;;;;5031335;28;20645;-68
2022/11/17 07:44:41;;;;;;;4.60;4.20;;;10.60;99.90;;;;;;5031017;28;20207;-68
2022/11/17 07:47:06;;;;;;;5.27;4.87;;;10.50;99.90;;;;;;5048110;28;20171;-68
2022/11/17 07:49:32;;;;;;;4.73;4.33;;;10.60;99.90;;;;;;5050761;28;20273;-68
2022/11/17 07:51:57;;;;;;;4.87;4.53;;;10.60;99.90;;;;;;5033077;28;20322;-68
2022/11/17 07:54:23;;;;;;;4.77;4.57;;;10.60;99.90;;;;;;5044833;28;20514;-68
2022/11/17 07:56:49;;;;;;;6.10;4.40;;;10.60;99.90;;;;;;5049571;28;20321;-68
2022/11/17 07:59:14;;;;;;;4.30;4.10;;;10.60;99.90;;;;;;5041039;28;20546;-68
2022/11/17 08:01:41;;;;;;;4.70;4.50;;;10.70;99.90;;;;;;5045616;28;20183;-69
2022/11/17 08:04:06;;;;;;;4.83;4.57;;;10.70;99.90;;;;;;5051285;28;20285;-68
2022/11/17 08:06:32;;;;;;;4.30;4.10;;;10.80;99.90;;;;;;5050890;28;20254;-68
2022/11/17 08:08:58;;;;;;;5.00;4.70;;;10.90;99.90;;;;;;5049951;28;20175;-69
2022/11/17 08:11:23;;;;;;;7.67;4.33;;;10.90;99.90;;;;;;5050453;28;20170;-69
2022/11/17 08:13:49;;;;;;;4.20;4.00;;;10.90;99.90;;;;;;5049886;28;20718;-69
2022/11/17 08:16:15;;;;;;;4.63;4.30;;;11.00;99.90;;;;;;5050538;28;20281;-68
2022/11/17 08:18:41;;;;;;;4.10;3.80;;;11.10;99.90;;;;;;5040943;28;20700;-68
2022/11/17 08:21:09;;;;;;;4.73;4.43;;;11.10;99.90;;;;;;5036780;28;20286;-68
2022/11/17 08:23:35;;;;;;;4.57;4.37;;;11.20;99.90;;;;;;5048677;28;20167;-68
2022/11/17 08:26:02;;;;;;;5.50;5.10;;;11.20;99.90;;;;;;5049072;28;20211;-68
2022/11/17 08:28:28;;;;;;;4.80;4.10;;;11.20;99.90;;;;;;5045493;28;20641;-68
2022/11/17 08:30:54;;;;;;;5.77;4.20;;;11.20;99.90;;;;;;5028959;28;20259;-68
2022/11/17 08:33:20;;;;;;;4.37;4.00;;;11.30;99.90;;;;;;5035345;28;20598;-69
2022/11/17 08:35:45;;;;;;;4.27;4.07;;;11.30;99.90;;;;;;5045151;28;20199;-68
2022/11/17 08:38:14;;;;;;;4.10;3.90;;;11.30;99.90;;;;;;5048628;28;20691;-68
2022/11/17 08:40:40;;;;;;;5.90;4.47;;;11.30;99.90;;;;;;5052347;28;20656;-68
2022/11/17 08:43:05;;;;;;;4.37;4.07;;;11.30;99.90;;;;;;5052444;28;20206;-68
2022/11/17 08:45:31;;;;;;;3.97;3.77;;;11.40;99.90;;;;;;5033911;28;20207;-68
2022/11/17 08:47:57;;;;;;;4.60;4.30;;;11.50;99.90;;;;;;5032667;28;20181;-68
2022/11/17 08:50:23;;;;;;;4.83;4.37;;;11.50;99.90;;;;;;5050191;28;20170;-68
2022/11/17 08:52:50;;;;;;;4.00;3.80;;;11.60;99.90;;;;;;5052524;28;20632;-67
2022/11/17 08:55:15;;;;;;;4.17;3.97;;;11.60;99.90;;;;;;5036117;28;20199;-68
2022/11/17 08:57:41;;;;;;;4.60;4.40;;;11.70;99.90;;;;;;5032411;28;20187;-68
2022/11/17 09:00:07;;;;;;;4.90;4.70;;;11.80;99.90;;;;;;5049049;28;20174;-67
2022/11/17 09:02:33;;;;;;;4.13;3.93;;;11.90;99.90;;;;;;5048572;28;20180;-68
2022/11/17 09:04:58;;;;;;;3.83;3.63;;;12.00;99.90;;;;;;5047181;28;20580;-68
2022/11/17 09:07:24;;;;;;;4.90;4.53;;;12.10;99.90;;;;;;5052155;28;20257;-68
2022/11/17 09:09:50;;;;;;;4.03;3.83;;;12.20;99.90;;;;;;5050020;28;20690;-67
2022/11/17 09:12:16;;;;;;;4.13;3.93;;;12.40;99.90;;;;;;5053647;28;20667;-67
2022/11/17 09:14:42;;;;;;;3.80;3.70;;;12.60;99.90;;;;;;5049822;28;20245;-68
2022/11/17 09:17:08;;;;;;;4.60;4.30;;;12.70;99.90;;;;;;5052486;28;20174;-68
2022/11/17 09:19:34;;;;;;;4.03;3.83;;;12.80;99.90;;;;;;5051725;28;20175;-67
2022/11/17 09:21:59;;;;;;;3.70;3.50;;;12.90;99.90;;;;;;5053501;28;20672;-67
2022/11/17 09:24:25;;;;;;;4.00;3.80;;;12.90;99.90;;;;;;5051894;28;20297;-68
2022/11/17 09:26:56;;;;;;;3.90;3.70;;;12.90;99.90;;;;;;5050807;28;20216;-68
2022/11/17 09:29:22;;;;;;;3.70;3.60;;;12.90;99.90;;;;;;5053134;28;20546;-67
2022/11/17 09:31:47;;;;;;;4.10;3.80;;;12.80;30.20;;;;;;5052921;28;20182;-67
2022/11/17 09:34:13;;;;;;;3.77;3.57;;;12.70;10.50;;;;;;5053331;28;20622;-68
2022/11/17 09:36:38;;;;;;;4.00;3.77;;;12.70;63.70;;;;;;5053108;28;20559;-68
2022/11/17 09:39:04;;;;;;;3.60;3.50;;;12.70;83.90;;;;;;5048487;28;20182;-67
2022/11/17 09:41:50;;;;;;;3.87;3.67;;;12.80;44.50;;;;;;5051464;28;20171;-68
2022/11/17 09:44:46;;;;;;;4.37;4.07;;;13.10;82.10;;;;;;5051283;28;20293;-68
2022/11/17 09:47:24;;;;;;;5.17;4.20;;;13.70;19.70;;;;;;5051795;28;20174;-68
2022/11/17 09:50:01;;;;;;;4.00;3.63;;;13.90;1.00;;;;;;5050969;28;20183;-67
2022/11/17 09:52:30;;;;;;;4.13;3.77;;;13.90;1.00;;;;;;5052958;28;20163;-68
2022/11/17 09:55:01;;;;;;;3.83;3.53;;;13.90;1.00;;;;;;5053020;28;20193;-68
2022/11/17 09:57:44;;;;;;;3.90;3.70;;;13.90;1.00;;;;;;5052940;28;20174;-67
2022/11/17 10:00:19;;;;;;;3.80;3.60;;;13.90;1.00;;;;;;5052707;28;20224;-68
2022/11/17 10:02:46;;;;;;;4.00;3.80;;;13.80;1.00;;;;;;5040898;28;20210;-67
2022/11/17 10:05:28;;;;;;;3.53;3.43;;;13.80;1.00;;;;;;5040820;28;20203;-68
2022/11/17 10:08:02;;;;;;;4.33;4.03;;;13.80;1.00;;;;;;5032549;28;20203;-68
2022/11/17 10:10:57;;;;;;;4.30;4.10;;;13.80;1.00;;;;;;5031970;28;20168;-67
2022/11/17 10:13:24;;;;;;;3.60;3.50;;;13.70;1.00;;;;;;5046597;28;20179;-67
2022/11/17 10:16:02;;;;;;;3.97;3.80;;;13.60;99.90;;;;;;5037816;28;20211;-67
2022/11/17 10:18:31;;;;;;;4.27;3.50;;;13.50;1.00;;;;;;5032418;28;20183;-67
2022/11/17 10:20:57;;;;;;;3.90;3.60;;;13.40;1.00;;;;;;5032123;28;20210;-67
2022/11/17 10:23:34;;;;;;;3.97;3.70;;;13.40;1.00;;;;;;5042772;28;20210;-67
2022/11/17 10:25:59;;;;;;;3.73;3.53;;;13.30;99.90;;;;;;5050674;28;20206;-67
2022/11/17 10:28:28;;;;;;;3.53;3.33;;;13.20;1.00;;;;;;5040252;28;20581;-67
2022/11/17 10:31:00;;;;;;;3.80;3.60;;;13.10;99.90;;;;;;5030685;28;20171;-66
2022/11/17 10:33:47;;;;;;;3.87;3.67;;;13.10;1.00;;;;;;5032667;28;20176;-66
2022/11/17 10:36:22;;;;;;;3.40;3.30;;;12.90;1.00;;;;;;5030911;28;20229;-66
2022/11/17 10:38:53;;;;;;;7.10;3.50;;;12.90;99.90;;;;;;5046168;28;20324;-67
2022/11/17 10:41:39;;;;;;;4.47;4.17;;;12.90;99.90;;;;;;5051870;28;20250;-67
2022/11/17 10:44:26;;;;;;;3.40;3.30;;;12.90;1.00;;;;;;5050097;28;20225;-66
2022/11/17 10:47:03;;;;;;;3.47;3.30;;;12.90;1.00;;;;;;5051649;28;20667;-67
2022/11/17 10:49:37;;;;;;;3.90;3.70;;;12.90;99.90;;;;;;5050919;28;20186;-67
2022/11/17 10:52:15;;;;;;;3.43;3.30;;;12.90;99.90;;;;;;5052028;28;20635;-67
2022/11/17 10:54:41;;;;;;;3.50;3.30;;;12.90;1.00;;;;;;5031111;28;20196;-67
2022/11/17 10:57:13;;;;;;;17.03;9.30;;;12.90;99.90;;;;;;5030401;28;20180;-67
2022/11/17 10:59:46;;;;;;;3.80;3.60;;;12.90;1.00;;;;;;5031469;28;20176;-66
2022/11/17 11:02:38;;;;;;;3.50;3.40;;;12.90;99.90;;;;;;5030779;28;20600;-66
2022/11/17 11:05:11;;;;;;;4.60;4.40;;;12.90;99.90;;;;;;5027878;28;20258;-66
2022/11/17 11:07:37;;;;;;;6.13;5.63;;;12.90;99.90;;;;;;5033576;28;20255;-66
2022/11/17 11:10:17;;;;;;;3.97;3.77;;;13.00;99.90;;;;;;5044367;28;20171;-66
2022/11/17 11:13:05;;;;;;;4.00;3.80;;;13.00;94.80;;;;;;5030067;28;20177;-67
2022/11/17 11:15:34;;;;;;;5.20;4.80;;;13.10;24.70;;;;;;5030652;28;20239;-66
2022/11/17 11:18:00;;;;;;;5.10;4.77;;;13.10;1.00;;;;;;5034634;28;20365;-67
2022/11/17 11:20:58;;;;;;;5.27;4.27;;;13.10;1.00;;;;;;5049621;28;20189;-66
2022/11/17 11:23:33;;;;;;;4.50;4.20;;;13.10;1.00;;;;;;5039297;28;20236;-68
2022/11/17 11:26:22;;;;;;;5.43;4.90;;;13.10;1.00;;;;;;5051076;28;20212;-67
2022/11/17 11:28:57;;;;;;;4.13;3.77;;;13.20;1.00;;;;;;5031457;28;20187;-67
2022/11/17 11:31:40;;;;;;;5.53;5.13;;;13.30;99.90;;;;;;5030058;28;20175;-67
2022/11/17 11:34:48;;;;;;;5.43;5.03;;;13.40;99.90;;;;;;5035210;28;20206;-66
2022/11/17 11:37:15;;;;;;;7.97;7.00;;;13.50;40.60;;;;;;5045556;28;20675;-67
2022/11/17 11:39:59;;;;;;;8.13;7.40;;;13.60;1.00;;;;;;5029677;28;20600;-68
2022/11/17 11:42:37;;;;;;;8.97;6.27;;;13.60;99.90;;;;;;5036174;28;20266;-67
2022/11/17 11:45:18;;;;;;;9.20;7.67;;;13.60;99.90;;;;;;5049611;28;20264;-68
2022/11/17 11:48:11;;;;;;;4.73;4.43;;;13.60;1.00;;;;;;5050298;28;20224;-67
2022/11/17 11:51:16;;;;;;;6.23;5.73;;;13.60;99.90;;;;;;5051337;28;20575;-68
2022/11/17 11:54:16;;;;;;;4.80;4.60;;;13.60;1.00;;;;;;5032838;28;20272;-67
2022/11/17 11:56:46;;;;;;;4.23;3.93;;;13.70;99.90;;;;;;5029581;28;20199;-67
2022/11/17 11:59:19;;;;;;;3.90;3.60;;;13.80;99.90;;;;;;5031160;28;20246;-67
2022/11/17 12:02:10;;;;;;;4.07;3.87;;;13.90;1.00;;;;;;5029590;28;20172;-67
2022/11/17 12:05:09;;;;;;;4.07;3.87;;;14.20;75.60;;;;;;5037478;28;20234;-66
2022/11/17 12:08:13;;;;;;;4.50;3.40;;;14.60;1.00;;;;;;5049403;28;20190;-67
2022/11/17 12:13:56;;;;;;;3.30;3.20;;;14.50;1.00;;;;;;5037945;28;20837;-66
2022/11/17 12:16:33;;;;;;;4.20;4.00;;;14.30;1.00;;;;;;5033277;28;20762;-66
2022/11/17 12:18:58;;;;;;;3.70;3.50;;;14.10;1.00;;;;;;5035240;28;20175;-66
2022/11/17 12:21:26;;;;;;;5.93;5.53;;;14.00;1.00;;;;;;5033218;28;20175;-67
2022/11/17 12:24:06;;;;;;;4.73;4.47;;;13.90;1.00;;;;;;5032979;28;20214;-67
2022/11/17 12:26:33;;;;;;;4.07;3.87;;;13.80;1.00;;;;;;5034627;28;20545;-68
2022/11/17 12:29:18;;;;;;;4.00;3.60;;;13.80;1.00;;;;;;5048695;28;20179;-68
2022/11/17 12:31:45;;;;;;;4.00;3.80;;;13.70;1.00;;;;;;5054105;28;20170;-67
2022/11/17 12:34:26;;;;;;;4.63;4.33;;;13.70;1.00;;;;;;5052512;28;20178;-68
2022/11/17 12:37:14;;;;;;;3.90;3.70;;;13.60;1.00;;;;;;5052699;28;20189;-68
2022/11/17 12:40:00;;;;;;;4.10;3.90;;;13.60;1.00;;;;;;5052733;28;20205;-67
2022/11/17 12:42:27;;;;;;;4.30;4.00;;;13.60;1.00;;;;;;5050335;28;20174;-67
2022/11/17 12:45:06;;;;;;;4.60;4.13;;;13.60;1.00;;;;;;5032644;28;20261;-67
2022/11/17 12:47:46;;;;;;;4.10;3.90;;;13.60;1.00;;;;;;5035312;28;20215;-67
2022/11/17 12:50:18;;;;;;;4.50;4.10;;;13.60;1.00;;;;;;5052564;28;20658;-67
2022/11/17 12:52:58;;;;;;;4.60;4.30;;;13.50;1.00;;;;;;5048944;28;20195;-67
2022/11/17 12:55:27;;;;;;;4.87;4.50;;;13.50;1.00;;;;;;5032759;28;20613;-67
2022/11/17 12:58:07;;;;;;;4.70;4.37;;;13.50;1.00;;;;;;5039096;28;20664;-67
2022/11/17 13:00:56;;;;;;;4.50;4.30;;;13.60;99.90;;;;;;5052259;28;20552;-67
2022/11/17 13:03:32;;;;;;;4.23;4.03;;;13.60;49.30;;;;;;5053556;28;20183;-67
2022/11/17 13:06:14;;;;;;;4.93;4.20;;;13.60;1.00;;;;;;5053398;28;20202;-67
2022/11/17 13:08:53;;;;;;;4.70;3.77;;;13.60;1.00;;;;;;5042917;28;20598;-67
2022/11/17 13:11:18;;;;;;;4.30;4.10;;;13.60;1.00;;;;;;5033718;28;20163;-67
2022/11/17 13:13:45;;;;;;;4.20;4.00;;;13.60;99.90;;;;;;5033836;28;20179;-67
2022/11/17 13:16:18;;;;;;;3.87;3.70;;;13.60;99.90;;;;;;5034204;28;20640;-67
2022/11/17 13:18:44;;;;;;;3.60;3.50;;;13.60;99.90;;;;;;5040511;28;20183;-67
2022/11/17 13:21:31;;;;;;;3.80;3.60;;;13.60;99.90;;;;;;5053035;28;20185;-67
2022/11/17 13:23:59;;;;;;;3.97;3.77;;;13.60;51.50;;;;;;5039555;28;20645;-68
2022/11/17 13:26:34;;;;;;;4.00;3.80;;;13.50;1.00;;;;;;5033482;28;20199;-68
2022/11/17 13:29:14;;;;;;;3.60;3.50;;;13.60;1.00;;;;;;5043931;28;20523;-68
2022/11/17 13:31:40;;;;;;;4.40;3.80;;;13.60;1.00;;;;;;5038397;28;20179;-67
2022/11/17 13:34:15;;;;;;;4.73;4.43;;;13.70;47.30;;;;;;5033214;28;20230;-67
2022/11/17 13:36:55;;;;;;;4.23;3.93;;;13.80;1.00;;;;;;5044103;28;20175;-67
2022/11/17 13:39:21;;;;;;;3.80;3.60;;;13.90;99.90;;;;;;5051762;28;20305;-68
2022/11/17 13:41:48;;;;;;;4.30;3.97;;;14.00;22.20;;;;;;5037634;28;20274;-67